sensor_id;sensor_type;location;lat;lon;timestamp;pressure;altitude;pressure_sealevel;temperature;humidity
21900;BME280;11114;50.658;12.704;2022-07-17T00:02:07;96999.81;;;14.21;49.82
21900;BME280;11114;50.658;12.704;2022-07-17T00:04:33;97004.38;;;14.11;49.71
21900;BME280;11114;50.658;12.704;2022-07-17T00:07:00;96996.75;;;14.00;50.08
21900;BME280;11114;50.658;12.704;2022-07-17T00:09:27;97002.34;;;13.97;50.03
21900;BME280;11114;50.658;12.704;2022-07-17T00:11:54;97001.97;;;13.92;50.26
21900;BME280;11114;50.658;12.704;2022-07-17T00:14:21;97009.03;;;13.92;50.37
21900;BME280;11114;50.658;12.704;2022-07-17T00:16:48;97008.19;;;13.91;50.50
21900;BME280;11114;50.658;12.704;2022-07-17T00:19:15;97016.59;;;13.95;50.47
21900;BME280;11114;50.658;12.704;2022-07-17T00:21:42;97013.13;;;13.94;50.17
21900;BME280;11114;50.658;12.704;2022-07-17T00:24:09;97010.78;;;13.83;50.23
21900;BME280;11114;50.658;12.704;2022-07-17T00:26:37;97015.38;;;13.81;50.52
21900;BME280;11114;50.658;12.704;2022-07-17T00:29:03;97012.91;;;13.80;50.72
21900;BME280;11114;50.658;12.704;2022-07-17T00:31:30;97007.81;;;13.78;50.69
21900;BME280;11114;50.658;12.704;2022-07-17T00:33:58;97011.72;;;13.74;50.65
21900;BME280;11114;50.658;12.704;2022-07-17T00:36:24;97013.19;;;13.69;50.83
21900;BME280;11114;50.658;12.704;2022-07-17T00:38:52;97020.22;;;13.68;50.87
21900;BME280;11114;50.658;12.704;2022-07-17T00:41:19;97019.03;;;13.63;50.91
21900;BME280;11114;50.658;12.704;2022-07-17T00:43:46;97013.47;;;13.58;51.02
21900;BME280;11114;50.658;12.704;2022-07-17T00:46:13;97017.06;;;13.57;51.10
21900;BME280;11114;50.658;12.704;2022-07-17T00:48:40;97001.47;;;13.55;51.02
21900;BME280;11114;50.658;12.704;2022-07-17T00:51:07;97003.44;;;13.53;51.07
21900;BME280;11114;50.658;12.704;2022-07-17T00:53:35;97011.44;;;13.52;51.10
21900;BME280;11114;50.658;12.704;2022-07-17T00:56:04;97011.38;;;13.44;51.21
21900;BME280;11114;50.658;12.704;2022-07-17T00:58:35;97013.03;;;13.45;51.46
21900;BME280;11114;50.658;12.704;2022-07-17T01:01:04;97007.28;;;13.41;51.18
21900;BME280;11114;50.658;12.704;2022-07-17T01:03:33;97008.00;;;13.26;51.40
21900;BME280;11114;50.658;12.704;2022-07-17T01:06:00;97016.31;;;13.21;51.72
21900;BME280;11114;50.658;12.704;2022-07-17T01:08:28;97010.63;;;13.26;51.68
21900;BME280;11114;50.658;12.704;2022-07-17T01:10:55;97013.91;;;13.28;51.61
21900;BME280;11114;50.658;12.704;2022-07-17T01:13:22;97013.09;;;13.27;51.66
21900;BME280;11114;50.658;12.704;2022-07-17T01:15:49;97014.84;;;13.19;51.80
21900;BME280;11114;50.658;12.704;2022-07-17T01:18:16;97019.56;;;13.15;51.73
21900;BME280;11114;50.658;12.704;2022-07-17T01:20:45;97024.91;;;13.06;51.95
21900;BME280;11114;50.658;12.704;2022-07-17T01:23:14;97027.75;;;12.95;52.28
21900;BME280;11114;50.658;12.704;2022-07-17T01:25:42;97027.09;;;12.93;52.35
21900;BME280;11114;50.658;12.704;2022-07-17T01:28:09;97032.03;;;12.96;52.61
21900;BME280;11114;50.658;12.704;2022-07-17T01:30:36;97029.09;;;12.99;52.51
21900;BME280;11114;50.658;12.704;2022-07-17T01:33:03;97031.13;;;13.05;52.85
21900;BME280;11114;50.658;12.704;2022-07-17T01:35:30;97027.28;;;13.17;52.36
21900;BME280;11114;50.658;12.704;2022-07-17T01:37:57;97029.44;;;13.21;52.32
21900;BME280;11114;50.658;12.704;2022-07-17T01:40:24;97028.31;;;13.24;52.27
21900;BME280;11114;50.658;12.704;2022-07-17T01:42:50;97030.56;;;13.19;52.39
21900;BME280;11114;50.658;12.704;2022-07-17T01:45:18;97030.22;;;13.14;52.25
21900;BME280;11114;50.658;12.704;2022-07-17T01:47:46;97028.56;;;13.13;52.64
21900;BME280;11114;50.658;12.704;2022-07-17T01:50:14;97030.56;;;13.19;52.24
21900;BME280;11114;50.658;12.704;2022-07-17T01:52:43;97023.84;;;13.16;52.41
21900;BME280;11114;50.658;12.704;2022-07-17T01:55:12;97021.50;;;13.13;52.44
21900;BME280;11114;50.658;12.704;2022-07-17T01:57:40;97027.16;;;13.01;52.63
21900;BME280;11114;50.658;12.704;2022-07-17T02:00:10;97036.31;;;12.97;52.77
21900;BME280;11114;50.658;12.704;2022-07-17T02:02:38;97026.94;;;12.95;52.74
21900;BME280;11114;50.658;12.704;2022-07-17T02:05:05;97025.38;;;13.02;52.78
21900;BME280;11114;50.658;12.704;2022-07-17T02:07:32;97034.56;;;13.06;52.65
21900;BME280;11114;50.658;12.704;2022-07-17T02:10:01;97032.41;;;13.01;52.61
21900;BME280;11114;50.658;12.704;2022-07-17T02:12:34;97024.75;;;12.90;52.72
21900;BME280;11114;50.658;12.704;2022-07-17T02:15:04;97022.53;;;12.95;52.96
21900;BME280;11114;50.658;12.704;2022-07-17T02:17:32;97016.88;;;13.08;52.63
21900;BME280;11114;50.658;12.704;2022-07-17T02:20:00;97025.78;;;13.14;52.29
21900;BME280;11114;50.658;12.704;2022-07-17T02:22:27;97026.97;;;13.20;52.29
21900;BME280;11114;50.658;12.704;2022-07-17T02:24:54;97020.47;;;13.24;52.28
21900;BME280;11114;50.658;12.704;2022-07-17T02:27:21;97022.91;;;13.25;52.22
21900;BME280;11114;50.658;12.704;2022-07-17T02:29:48;97019.00;;;13.29;52.00
21900;BME280;11114;50.658;12.704;2022-07-17T02:32:15;97026.25;;;13.10;52.15
21900;BME280;11114;50.658;12.704;2022-07-17T02:34:42;97026.31;;;12.83;52.72
21900;BME280;11114;50.658;12.704;2022-07-17T02:37:09;97023.03;;;12.64;53.06
21900;BME280;11114;50.658;12.704;2022-07-17T02:39:37;97020.94;;;12.50;53.58
21900;BME280;11114;50.658;12.704;2022-07-17T02:42:26;97026.03;;;12.51;54.00
21900;BME280;11114;50.658;12.704;2022-07-17T02:44:54;97019.00;;;12.69;53.46
21900;BME280;11114;50.658;12.704;2022-07-17T02:47:31;97022.66;;;12.76;53.46
21900;BME280;11114;50.658;12.704;2022-07-17T02:50:00;97018.84;;;12.71;53.45
21900;BME280;11114;50.658;12.704;2022-07-17T02:52:28;97015.81;;;12.83;53.34
21900;BME280;11114;50.658;12.704;2022-07-17T02:54:55;97011.41;;;13.01;53.06
21900;BME280;11114;50.658;12.704;2022-07-17T02:57:22;97011.69;;;13.15;52.58
21900;BME280;11114;50.658;12.704;2022-07-17T02:59:49;97010.47;;;13.27;52.36
21900;BME280;11114;50.658;12.704;2022-07-17T03:02:16;97009.84;;;13.33;52.23
21900;BME280;11114;50.658;12.704;2022-07-17T03:04:42;97014.63;;;13.38;52.00
21900;BME280;11114;50.658;12.704;2022-07-17T03:07:09;97010.75;;;13.42;51.92
21900;BME280;11114;50.658;12.704;2022-07-17T03:09:36;97011.38;;;13.44;51.77
21900;BME280;11114;50.658;12.704;2022-07-17T03:12:03;97012.66;;;13.32;51.94
21900;BME280;11114;50.658;12.704;2022-07-17T03:14:31;97015.63;;;13.12;52.46
21900;BME280;11114;50.658;12.704;2022-07-17T03:16:58;97015.47;;;13.13;52.59
21900;BME280;11114;50.658;12.704;2022-07-17T03:19:25;97016.22;;;13.06;52.52
21900;BME280;11114;50.658;12.704;2022-07-17T03:21:51;97010.22;;;13.13;52.27
21900;BME280;11114;50.658;12.704;2022-07-17T03:24:18;97014.22;;;13.25;52.22
21900;BME280;11114;50.658;12.704;2022-07-17T03:26:45;97014.44;;;13.31;52.25
21900;BME280;11114;50.658;12.704;2022-07-17T03:29:12;97018.06;;;13.38;52.08
21900;BME280;11114;50.658;12.704;2022-07-17T03:31:39;97020.41;;;13.41;51.70
21900;BME280;11114;50.658;12.704;2022-07-17T03:34:06;97014.00;;;13.44;51.88
21900;BME280;11114;50.658;12.704;2022-07-17T03:36:33;97012.75;;;13.48;51.82
21900;BME280;11114;50.658;12.704;2022-07-17T03:38:59;97021.13;;;13.51;51.52
21900;BME280;11114;50.658;12.704;2022-07-17T03:41:26;97023.44;;;13.54;51.65
21900;BME280;11114;50.658;12.704;2022-07-17T03:43:53;97024.09;;;13.56;51.61
21900;BME280;11114;50.658;12.704;2022-07-17T03:46:21;97024.94;;;13.57;51.50
21900;BME280;11114;50.658;12.704;2022-07-17T03:48:48;97024.63;;;13.60;51.57
21900;BME280;11114;50.658;12.704;2022-07-17T03:51:15;97019.03;;;13.63;51.31
21900;BME280;11114;50.658;12.704;2022-07-17T03:53:42;97026.38;;;13.51;51.38
21900;BME280;11114;50.658;12.704;2022-07-17T03:56:09;97019.88;;;13.38;51.68
21900;BME280;11114;50.658;12.704;2022-07-17T03:58:35;97026.50;;;13.42;51.81
21900;BME280;11114;50.658;12.704;2022-07-17T04:01:02;97026.53;;;13.50;51.83
21900;BME280;11114;50.658;12.704;2022-07-17T04:03:29;97038.22;;;13.55;51.50
21900;BME280;11114;50.658;12.704;2022-07-17T04:05:56;97036.09;;;13.59;51.38
21900;BME280;11114;50.658;12.704;2022-07-17T04:08:22;97032.13;;;13.55;51.44
21900;BME280;11114;50.658;12.704;2022-07-17T04:10:49;97038.03;;;13.57;51.50
21900;BME280;11114;50.658;12.704;2022-07-17T04:13:16;97035.13;;;13.60;51.44
21900;BME280;11114;50.658;12.704;2022-07-17T04:15:44;97033.16;;;13.62;51.52
21900;BME280;11114;50.658;12.704;2022-07-17T04:18:16;97040.72;;;13.65;51.48
21900;BME280;11114;50.658;12.704;2022-07-17T04:20:44;97038.75;;;13.67;51.43
21900;BME280;11114;50.658;12.704;2022-07-17T04:23:10;97042.06;;;13.69;51.44
21900;BME280;11114;50.658;12.704;2022-07-17T04:25:37;97043.38;;;13.73;51.73
21900;BME280;11114;50.658;12.704;2022-07-17T04:28:04;97031.75;;;13.75;51.63
21900;BME280;11114;50.658;12.704;2022-07-17T04:30:31;97036.69;;;13.78;51.60
21900;BME280;11114;50.658;12.704;2022-07-17T04:32:58;97030.97;;;13.83;51.57
21900;BME280;11114;50.658;12.704;2022-07-17T04:35:25;97039.19;;;13.88;51.39
21900;BME280;11114;50.658;12.704;2022-07-17T04:37:52;97036.09;;;13.92;51.38
21900;BME280;11114;50.658;12.704;2022-07-17T04:40:19;97040.22;;;13.95;51.16
21900;BME280;11114;50.658;12.704;2022-07-17T04:42:46;97033.00;;;13.96;51.40
21900;BME280;11114;50.658;12.704;2022-07-17T04:45:13;97040.56;;;13.99;51.18
21900;BME280;11114;50.658;12.704;2022-07-17T04:47:41;97035.31;;;13.99;51.25
21900;BME280;11114;50.658;12.704;2022-07-17T04:50:08;97039.75;;;13.99;51.17
21900;BME280;11114;50.658;12.704;2022-07-17T04:52:36;97039.59;;;14.00;51.25
21900;BME280;11114;50.658;12.704;2022-07-17T04:55:03;97042.38;;;13.99;51.24
21900;BME280;11114;50.658;12.704;2022-07-17T04:57:30;97042.38;;;13.99;51.24
21900;BME280;11114;50.658;12.704;2022-07-17T04:59:56;97040.56;;;13.99;51.49
21900;BME280;11114;50.658;12.704;2022-07-17T05:02:23;97043.88;;;14.01;51.33
21900;BME280;11114;50.658;12.704;2022-07-17T05:04:50;97047.81;;;14.05;51.48
21900;BME280;11114;50.658;12.704;2022-07-17T05:07:17;97055.69;;;14.05;51.55
21900;BME280;11114;50.658;12.704;2022-07-17T05:09:44;97052.97;;;13.90;51.76
21900;BME280;11114;50.658;12.704;2022-07-17T05:12:10;97052.78;;;13.83;52.08
21900;BME280;11114;50.658;12.704;2022-07-17T05:14:38;97050.03;;;13.85;52.07
21900;BME280;11114;50.658;12.704;2022-07-17T05:17:05;97048.09;;;13.95;52.12
21900;BME280;11114;50.658;12.704;2022-07-17T05:19:31;97055.34;;;14.00;52.01
21900;BME280;11114;50.658;12.704;2022-07-17T05:21:58;97052.41;;;14.03;52.05
21900;BME280;11114;50.658;12.704;2022-07-17T05:24:25;97050.44;;;14.05;52.27
21900;BME280;11114;50.658;12.704;2022-07-17T05:26:52;97055.53;;;14.07;52.35
21900;BME280;11114;50.658;12.704;2022-07-17T05:29:19;97053.38;;;14.02;52.13
21900;BME280;11114;50.658;12.704;2022-07-17T05:31:46;97053.91;;;14.06;52.53
21900;BME280;11114;50.658;12.704;2022-07-17T05:34:13;97063.25;;;14.08;52.33
21900;BME280;11114;50.658;12.704;2022-07-17T05:36:40;97056.59;;;14.14;52.60
21900;BME280;11114;50.658;12.704;2022-07-17T05:39:07;97051.09;;;14.07;52.45
21900;BME280;11114;50.658;12.704;2022-07-17T05:41:34;97060.00;;;14.14;52.42
21900;BME280;11114;50.658;12.704;2022-07-17T05:44:02;97057.91;;;14.26;51.90
21900;BME280;11114;50.658;12.704;2022-07-17T05:46:28;97065.38;;;14.38;52.02
21900;BME280;11114;50.658;12.704;2022-07-17T05:48:55;97062.59;;;14.40;51.96
21900;BME280;11114;50.658;12.704;2022-07-17T05:51:23;97070.78;;;14.45;51.67
21900;BME280;11114;50.658;12.704;2022-07-17T05:53:51;97070.34;;;14.57;51.63
21900;BME280;11114;50.658;12.704;2022-07-17T05:56:18;97081.69;;;14.58;51.30
21900;BME280;11114;50.658;12.704;2022-07-17T05:58:46;97085.59;;;14.54;51.57
21900;BME280;11114;50.658;12.704;2022-07-17T06:01:12;97085.94;;;14.51;51.39
21900;BME280;11114;50.658;12.704;2022-07-17T06:03:39;97089.75;;;14.56;51.30
21900;BME280;11114;50.658;12.704;2022-07-17T06:06:06;97085.16;;;14.66;51.33
21900;BME280;11114;50.658;12.704;2022-07-17T06:08:33;97079.75;;;14.76;51.06
21900;BME280;11114;50.658;12.704;2022-07-17T06:11:00;97085.69;;;14.85;51.19
21900;BME280;11114;50.658;12.704;2022-07-17T06:13:27;97083.88;;;14.94;50.84
21900;BME280;11114;50.658;12.704;2022-07-17T06:15:53;97094.78;;;15.07;50.70
21900;BME280;11114;50.658;12.704;2022-07-17T06:18:25;97090.66;;;15.12;50.38
21900;BME280;11114;50.658;12.704;2022-07-17T06:20:52;97086.09;;;15.22;50.15
21900;BME280;11114;50.658;12.704;2022-07-17T06:23:18;97094.31;;;15.35;50.13
21900;BME280;11114;50.658;12.704;2022-07-17T06:25:46;97093.66;;;15.57;50.13
21900;BME280;11114;50.658;12.704;2022-07-17T06:28:12;97089.91;;;16.60;47.58
21900;BME280;11114;50.658;12.704;2022-07-17T06:30:39;97076.28;;;19.19;43.28
21900;BME280;11114;50.658;12.704;2022-07-17T06:33:06;97067.59;;;21.28;40.23
21900;BME280;11114;50.658;12.704;2022-07-17T06:35:33;97062.78;;;23.77;36.96
21900;BME280;11114;50.658;12.704;2022-07-17T06:38:02;97062.78;;;25.27;34.49
21900;BME280;11114;50.658;12.704;2022-07-17T06:40:29;97055.63;;;26.60;33.17
21900;BME280;11114;50.658;12.704;2022-07-17T06:42:56;97055.22;;;27.46;30.55
21900;BME280;11114;50.658;12.704;2022-07-17T06:45:23;97064.41;;;27.50;30.25
21900;BME280;11114;50.658;12.704;2022-07-17T06:47:50;97063.97;;;28.35;30.27
21900;BME280;11114;50.658;12.704;2022-07-17T06:50:17;97070.97;;;29.17;29.00
21900;BME280;11114;50.658;12.704;2022-07-17T06:52:43;97068.38;;;28.41;29.02
21900;BME280;11114;50.658;12.704;2022-07-17T06:55:12;97067.81;;;29.20;28.49
21900;BME280;11114;50.658;12.704;2022-07-17T06:57:39;97060.28;;;30.37;26.55
21900;BME280;11114;50.658;12.704;2022-07-17T07:00:07;97071.94;;;31.60;26.02
21900;BME280;11114;50.658;12.704;2022-07-17T07:02:36;97077.88;;;32.76;23.99
21900;BME280;11114;50.658;12.704;2022-07-17T07:05:03;97074.06;;;32.82;23.53
21900;BME280;11114;50.658;12.704;2022-07-17T07:07:31;97084.28;;;33.10;23.50
21900;BME280;11114;50.658;12.704;2022-07-17T07:09:58;97083.19;;;33.69;23.01
21900;BME280;11114;50.658;12.704;2022-07-17T07:12:24;97086.97;;;34.06;21.97
21900;BME280;11114;50.658;12.704;2022-07-17T07:14:53;97082.13;;;34.37;21.99
21900;BME280;11114;50.658;12.704;2022-07-17T07:17:20;97076.56;;;35.03;21.15
21900;BME280;11114;50.658;12.704;2022-07-17T07:19:47;97075.56;;;34.94;21.26
21900;BME280;11114;50.658;12.704;2022-07-17T07:22:14;97075.47;;;35.04;21.11
21900;BME280;11114;50.658;12.704;2022-07-17T07:24:41;97087.09;;;35.28;20.71
21900;BME280;11114;50.658;12.704;2022-07-17T07:27:08;97081.44;;;36.21;20.29
21900;BME280;11114;50.658;12.704;2022-07-17T07:29:34;97079.72;;;36.44;18.76
21900;BME280;11114;50.658;12.704;2022-07-17T07:32:01;97079.59;;;36.17;19.89
21900;BME280;11114;50.658;12.704;2022-07-17T07:34:28;97093.66;;;36.06;19.47
21900;BME280;11114;50.658;12.704;2022-07-17T07:36:55;97088.66;;;36.13;19.93
21900;BME280;11114;50.658;12.704;2022-07-17T07:39:22;97096.38;;;36.37;19.26
21900;BME280;11114;50.658;12.704;2022-07-17T07:41:49;97089.81;;;36.57;19.07
21900;BME280;11114;50.658;12.704;2022-07-17T07:44:16;97093.88;;;36.09;19.37
21900;BME280;11114;50.658;12.704;2022-07-17T07:46:57;97086.22;;;35.93;19.66
21900;BME280;11114;50.658;12.704;2022-07-17T07:49:24;97092.56;;;36.38;19.41
21900;BME280;11114;50.658;12.704;2022-07-17T07:51:50;97092.69;;;35.60;19.56
21900;BME280;11114;50.658;12.704;2022-07-17T07:54:29;97085.06;;;36.17;19.25
21900;BME280;11114;50.658;12.704;2022-07-17T07:56:56;97082.59;;;35.42;18.34
21900;BME280;11114;50.658;12.704;2022-07-17T07:59:23;97080.53;;;35.34;19.43
21900;BME280;11114;50.658;12.704;2022-07-17T08:01:49;97082.91;;;36.14;19.05
21900;BME280;11114;50.658;12.704;2022-07-17T08:04:17;97074.19;;;36.62;18.79
21900;BME280;11114;50.658;12.704;2022-07-17T08:06:43;97073.59;;;36.65;18.96
21900;BME280;11114;50.658;12.704;2022-07-17T08:09:10;97080.78;;;35.93;19.00
21900;BME280;11114;50.658;12.704;2022-07-17T08:11:37;97074.38;;;35.05;19.79
21900;BME280;11114;50.658;12.704;2022-07-17T08:14:04;97074.19;;;34.73;20.13
21900;BME280;11114;50.658;12.704;2022-07-17T08:16:42;97079.13;;;34.66;19.96
21900;BME280;11114;50.658;12.704;2022-07-17T08:19:09;97070.38;;;34.74;20.01
21900;BME280;11114;50.658;12.704;2022-07-17T08:21:36;97075.63;;;34.89;19.71
21900;BME280;11114;50.658;12.704;2022-07-17T08:24:04;97067.50;;;34.33;20.44
21900;BME280;11114;50.658;12.704;2022-07-17T08:26:31;97075.94;;;34.31;20.37
21900;BME280;11114;50.658;12.704;2022-07-17T08:28:58;97080.72;;;33.72;20.78
21900;BME280;11114;50.658;12.704;2022-07-17T08:31:25;97073.13;;;34.41;20.48
21900;BME280;11114;50.658;12.704;2022-07-17T08:33:52;97072.44;;;34.59;19.96
21900;BME280;11114;50.658;12.704;2022-07-17T08:36:19;97065.75;;;34.46;19.66
21900;BME280;11114;50.658;12.704;2022-07-17T08:38:46;97057.78;;;35.07;20.03
21900;BME280;11114;50.658;12.704;2022-07-17T08:41:17;97057.56;;;34.56;20.18
21900;BME280;11114;50.658;12.704;2022-07-17T08:43:44;97074.22;;;33.20;20.74
21900;BME280;11114;50.658;12.704;2022-07-17T08:46:12;97077.94;;;31.96;22.08
21900;BME280;11114;50.658;12.704;2022-07-17T08:48:45;97070.63;;;32.02;22.21
21900;BME280;11114;50.658;12.704;2022-07-17T08:51:15;97081.19;;;32.13;22.44
21900;BME280;11114;50.658;12.704;2022-07-17T08:53:43;97070.63;;;31.67;22.44
21900;BME280;11114;50.658;12.704;2022-07-17T08:56:10;97074.00;;;31.38;22.10
21900;BME280;11114;50.658;12.704;2022-07-17T08:58:38;97091.72;;;31.04;23.14
21900;BME280;11114;50.658;12.704;2022-07-17T09:01:05;97086.16;;;31.35;22.47
21900;BME280;11114;50.658;12.704;2022-07-17T09:03:32;97087.88;;;31.61;22.81
21900;BME280;11114;50.658;12.704;2022-07-17T09:06:23;97090.06;;;31.89;22.75
21900;BME280;11114;50.658;12.704;2022-07-17T09:09:06;97090.88;;;31.70;21.61
21900;BME280;11114;50.658;12.704;2022-07-17T09:11:48;97089.25;;;30.97;23.52
21900;BME280;11114;50.658;12.704;2022-07-17T09:14:18;97099.78;;;29.90;23.27
21900;BME280;11114;50.658;12.704;2022-07-17T09:16:50;97083.97;;;29.99;23.58
21900;BME280;11114;50.658;12.704;2022-07-17T09:19:30;97084.00;;;30.35;23.49
21900;BME280;11114;50.658;12.704;2022-07-17T09:22:14;97084.13;;;30.18;23.69
21900;BME280;11114;50.658;12.704;2022-07-17T09:30:09;97094.63;;;29.89;23.21
21900;BME280;11114;50.658;12.704;2022-07-17T09:32:38;97088.72;;;29.60;24.62
21900;BME280;11114;50.658;12.704;2022-07-17T09:35:08;97087.03;;;29.54;25.42
21900;BME280;11114;50.658;12.704;2022-07-17T09:37:37;97078.84;;;29.71;23.53
21900;BME280;11114;50.658;12.704;2022-07-17T09:40:11;97075.84;;;29.67;24.04
21900;BME280;11114;50.658;12.704;2022-07-17T09:42:58;97085.81;;;29.93;24.43
21900;BME280;11114;50.658;12.704;2022-07-17T09:45:25;97092.69;;;29.84;24.85
21900;BME280;11114;50.658;12.704;2022-07-17T09:47:53;97081.03;;;30.00;25.18
21900;BME280;11114;50.658;12.704;2022-07-17T09:50:21;97086.72;;;29.77;25.18
21900;BME280;11114;50.658;12.704;2022-07-17T09:52:52;97077.53;;;29.25;25.17
21900;BME280;11114;50.658;12.704;2022-07-17T09:55:19;97077.06;;;29.07;24.70
21900;BME280;11114;50.658;12.704;2022-07-17T09:58:09;97076.97;;;29.23;26.08
21900;BME280;11114;50.658;12.704;2022-07-17T10:00:36;97070.75;;;29.39;25.97
21900;BME280;11114;50.658;12.704;2022-07-17T10:03:04;97069.72;;;29.45;24.77
21900;BME280;11114;50.658;12.704;2022-07-17T10:05:32;97073.09;;;28.72;24.92
21900;BME280;11114;50.658;12.704;2022-07-17T10:07:59;97070.97;;;28.74;25.25
21900;BME280;11114;50.658;12.704;2022-07-17T10:10:26;97077.13;;;28.91;25.08
21900;BME280;11114;50.658;12.704;2022-07-17T10:12:53;97073.38;;;28.92;25.16
21900;BME280;11114;50.658;12.704;2022-07-17T10:15:25;97070.56;;;29.03;25.47
21900;BME280;11114;50.658;12.704;2022-07-17T10:18:03;97061.13;;;29.01;25.26
21900;BME280;11114;50.658;12.704;2022-07-17T10:20:33;97063.41;;;29.14;25.03
21900;BME280;11114;50.658;12.704;2022-07-17T10:23:15;97054.50;;;29.34;24.76
21900;BME280;11114;50.658;12.704;2022-07-17T10:25:42;97050.53;;;29.37;25.60
21900;BME280;11114;50.658;12.704;2022-07-17T10:28:09;97044.75;;;29.28;25.41
21900;BME280;11114;50.658;12.704;2022-07-17T10:30:41;97055.88;;;28.89;24.53
21900;BME280;11114;50.658;12.704;2022-07-17T10:33:15;97067.63;;;28.83;26.11
21900;BME280;11114;50.658;12.704;2022-07-17T10:35:47;97060.56;;;28.99;24.68
21900;BME280;11114;50.658;12.704;2022-07-17T10:38:15;97061.28;;;28.73;24.27
21900;BME280;11114;50.658;12.704;2022-07-17T10:40:42;97066.47;;;28.58;25.48
21900;BME280;11114;50.658;12.704;2022-07-17T10:43:09;97068.28;;;28.74;25.01
21900;BME280;11114;50.658;12.704;2022-07-17T10:45:46;97062.91;;;28.74;25.13
21900;BME280;11114;50.658;12.704;2022-07-17T10:48:15;97073.50;;;28.80;26.69
21900;BME280;11114;50.658;12.704;2022-07-17T10:50:45;97074.81;;;28.40;25.47
21900;BME280;11114;50.658;12.704;2022-07-17T10:55:58;97070.47;;;28.77;25.68
21900;BME280;11114;50.658;12.704;2022-07-17T10:58:30;97065.63;;;28.95;24.33
21900;BME280;11114;50.658;12.704;2022-07-17T11:01:05;97068.06;;;28.97;24.66
21900;BME280;11114;50.658;12.704;2022-07-17T11:03:44;97067.25;;;28.96;24.58
21900;BME280;11114;50.658;12.704;2022-07-17T11:11:20;97053.84;;;29.01;24.28
21900;BME280;11114;50.658;12.704;2022-07-17T11:13:55;97061.66;;;29.24;24.79
21900;BME280;11114;50.658;12.704;2022-07-17T11:16:32;97067.59;;;29.05;24.41
21900;BME280;11114;50.658;12.704;2022-07-17T11:19:00;97063.47;;;29.40;23.52
21900;BME280;11114;50.658;12.704;2022-07-17T11:21:27;97060.94;;;29.33;23.74
21900;BME280;11114;50.658;12.704;2022-07-17T11:23:56;97062.69;;;29.39;24.48
21900;BME280;11114;50.658;12.704;2022-07-17T11:26:23;97063.28;;;29.46;26.27
21900;BME280;11114;50.658;12.704;2022-07-17T11:28:51;97066.41;;;29.65;23.84
21900;BME280;11114;50.658;12.704;2022-07-17T11:31:27;97057.94;;;30.09;23.90
21900;BME280;11114;50.658;12.704;2022-07-17T11:34:06;97053.81;;;30.38;23.67
21900;BME280;11114;50.658;12.704;2022-07-17T11:36:38;97049.13;;;30.23;22.93
21900;BME280;11114;50.658;12.704;2022-07-17T11:39:15;97051.72;;;30.04;24.11
21900;BME280;11114;50.658;12.704;2022-07-17T11:41:47;97041.75;;;30.45;24.37
21900;BME280;11114;50.658;12.704;2022-07-17T11:44:17;97043.31;;;30.83;24.01
21900;BME280;11114;50.658;12.704;2022-07-17T11:46:47;97039.22;;;30.70;23.23
21900;BME280;11114;50.658;12.704;2022-07-17T11:49:26;97042.28;;;30.89;22.77
21900;BME280;11114;50.658;12.704;2022-07-17T11:51:55;97031.56;;;30.52;23.74
21900;BME280;11114;50.658;12.704;2022-07-17T11:54:23;97043.69;;;30.50;24.22
21900;BME280;11114;50.658;12.704;2022-07-17T11:56:56;97039.66;;;30.52;23.62
21900;BME280;11114;50.658;12.704;2022-07-17T11:59:29;97029.53;;;30.79;24.15
21900;BME280;11114;50.658;12.704;2022-07-17T12:02:05;97032.56;;;30.92;23.57
21900;BME280;11114;50.658;12.704;2022-07-17T12:04:32;97029.75;;;30.68;23.69
21900;BME280;11114;50.658;12.704;2022-07-17T12:07:02;97032.25;;;30.38;24.24
21900;BME280;11114;50.658;12.704;2022-07-17T12:09:32;97027.28;;;30.15;23.55
21900;BME280;11114;50.658;12.704;2022-07-17T12:12:02;97030.31;;;29.92;25.48
21900;BME280;11114;50.658;12.704;2022-07-17T12:14:30;97033.41;;;29.22;24.35
21900;BME280;11114;50.658;12.704;2022-07-17T12:16:57;97033.97;;;28.81;24.63
21900;BME280;11114;50.658;12.704;2022-07-17T12:19:29;97029.19;;;28.83;25.92
21900;BME280;11114;50.658;12.704;2022-07-17T12:22:00;97036.34;;;28.99;24.99
21900;BME280;11114;50.658;12.704;2022-07-17T12:24:38;97032.53;;;29.16;25.52
21900;BME280;11114;50.658;12.704;2022-07-17T12:27:07;97021.13;;;29.30;24.71
21900;BME280;11114;50.658;12.704;2022-07-17T12:29:35;97026.16;;;29.48;25.72
21900;BME280;11114;50.658;12.704;2022-07-17T12:32:15;97023.72;;;29.47;25.09
21900;BME280;11114;50.658;12.704;2022-07-17T12:34:45;97023.25;;;29.28;25.14
21900;BME280;11114;50.658;12.704;2022-07-17T12:37:14;97023.97;;;28.98;23.20
21900;BME280;11114;50.658;12.704;2022-07-17T12:39:46;97022.75;;;28.84;23.43
21900;BME280;11114;50.658;12.704;2022-07-17T12:42:15;97020.25;;;28.61;23.80
21900;BME280;11114;50.658;12.704;2022-07-17T12:44:43;97027.06;;;28.47;24.73
21900;BME280;11114;50.658;12.704;2022-07-17T12:47:13;97022.06;;;28.18;24.20
21900;BME280;11114;50.658;12.704;2022-07-17T12:49:39;97027.78;;;28.21;24.85
21900;BME280;11114;50.658;12.704;2022-07-17T12:52:08;97025.00;;;28.00;25.33
21900;BME280;11114;50.658;12.704;2022-07-17T12:54:35;97020.88;;;27.92;25.06
21900;BME280;11114;50.658;12.704;2022-07-17T12:57:02;97014.50;;;28.31;23.82
21900;BME280;11114;50.658;12.704;2022-07-17T12:59:28;97016.91;;;28.49;23.83
21900;BME280;11114;50.658;12.704;2022-07-17T13:01:55;97016.91;;;28.49;24.15
21900;BME280;11114;50.658;12.704;2022-07-17T13:04:23;97017.03;;;28.59;24.29
21900;BME280;11114;50.658;12.704;2022-07-17T13:06:50;97024.53;;;28.57;24.46
21900;BME280;11114;50.658;12.704;2022-07-17T13:09:17;97020.91;;;28.46;24.84
21900;BME280;11114;50.658;12.704;2022-07-17T13:11:46;97008.75;;;28.44;24.22